ホバート国際空港の過去48時間の天気

ホバート国際空港 (Hobart Airport)

現在時刻: 5/26 12:15 AEST (5/26 02:15 UTC) 以下の時間は現地時間です。

過去48時間のMETAR気象情報
時間 風向 風速(m/s) 視程 気温(℃) 湿度(%) 気圧(hPa) 天気現象
26 12:00 北西 6 10km以上 10 87 1017
26 11:30 北西 5 10km以上 9 87 1017
26 11:00 北西 3 10km以上 9 87 1018
26 10:30 西北西 4 10km以上 9 87 1018
26 09:00 北西 4 10km以上 6 93 1019
26 08:30 西北西 3 10km以上 5 93 1019
26 08:00 西北西 3 10km以上 4 100 1019
26 07:30 西 2 10km以上 4 93 1019
26 07:00 北西 4 10km以上 4 100 1019
26 06:30 西北西 4 10km以上 5 93 1019
26 06:00 西北西 3 10km以上 5 93 1019
26 05:30 北西 3 10km以上 5 93 1019
26 05:00 西北西 2 10km以上 5 93 1019
26 04:30 北西 3 10km以上 4 100 1019
26 04:00 北西 4 10km以上 5 93 1019
26 03:30 北西 3 10km以上 6 93 1020
26 03:00 北西 5 10km以上 6 93 1020
26 02:30 北西 4 10km以上 6 93 1020
26 02:00 北西 3 10km以上 6 93 1020
26 01:30 北西 5 10km以上 6 93 1021
26 01:00 西北西 3 10km以上 6 93 1021
26 00:30 北西 3 10km以上 6 93 1021
26 00:00 西北西 3 10km以上 6 93 1021
25 23:30 西北西 3 10km以上 7 87 1022
25 23:00 西北西 3 10km以上 6 93 1022
25 22:30 西北西 2 10km以上 7 87 1022
25 22:00 北西 4 10km以上 7 93 1022
25 21:30 北西 1 10km以上 6 81 1022
25 20:30 北北西 1 10km以上 9 87 1023
25 20:00 西北西 3 10km以上 9 81 1023
25 19:30 2 10km以上 10 82 1023
25 19:00 北北東 3 10km以上 10 82 1023
25 18:30 4 10km以上 12 82 1023
25 18:00 北北東 3 10km以上 12 82 1023
25 17:30 北北東 3 10km以上 12 71 1023
25 17:00 北北東 3 10km以上 13 67 1023
25 16:30 3 10km以上 14 63 1023
25 16:00 4 10km以上 15 59 1023
25 15:30 4 10km以上 16 55 1023
25 15:00 5 10km以上 16 59 1023
25 14:30 4 10km以上 16 59 1023
25 14:00 4 10km以上 16 55 1023
25 13:30 5 10km以上 16 51 1023
25 13:00 北北西 4 10km以上 16 59 1024
25 12:30 北西 4 10km以上 14 63 1024
25 12:00 北西 5 10km以上 13 67 1025
25 11:30 北西 4 10km以上 12 71 1025
25 11:00 北西 4 10km以上 11 76 1026
25 10:30 3 10km以上 9 76 1026
25 10:00 北西 5 10km以上 8 81 1026
25 09:30 西北西 4 10km以上 7 81 1027
25 09:00 北北西 4 10km以上 6 87 1027
25 08:30 北北西 4 10km以上 5 87 1027
25 08:00 西北西 3 10km以上 4 93 1027
25 07:30 北西 4 10km以上 3 93 1027
25 07:00 西北西 3 10km以上 3 93 1027
25 06:30 北西 4 10km以上 3 93 1027
25 06:00 北西 4 10km以上 4 93 1027
25 05:30 北西 4 10km以上 4 93 1027
25 05:00 北西 4 10km以上 4 93 1027
25 04:30 北北西 3 10km以上 4 93 1027
25 04:00 西北西 3 10km以上 4 93 1027
25 03:30 4 10km以上 4 93 1027
25 03:00 北西 4 10km以上 4 93 1027
25 02:30 北西 5 10km以上 4 93 1028
25 02:00 北西 4 10km以上 5 87 1028
25 01:30 北西 4 10km以上 5 87 1028
25 01:00 北西 3 10km以上 4 93 1028
25 00:30 西 2 10km以上 4 93 1029
24 23:00 西北西 3 10km以上 5 93 1029
24 22:30 北西 4 10km以上 4 93 1029
24 21:30 北西 4 10km以上 6 87 1029
24 21:00 北西 3 10km以上 6 93 1029
24 20:30 西 2 10km以上 6 93 1029
24 19:30 静穏 0 10km以上 6 93 1029
24 19:00 2 10km以上 7 93 1029
24 18:30 北北西 1 10km以上 7 87 1029
24 18:00 北西 1 10km以上 8 93 1028
24 17:30 南南東 1 10km以上 8 87 1028
24 17:00 静穏 0 10km以上 9 81 1028
24 16:30 南東 2 10km以上 11 76 1028
24 15:30 南東 3 10km以上 12 77 1028
24 14:30 南南東 4 10km以上 13 67 1028
24 14:00 西北西 2 10km以上 14 63 1029
24 13:30 北北西 3 10km以上 14 63 1029
24 13:00 北西 4 10km以上 13 62 1029
24 12:30 西北西 3 10km以上 13 67 1030
YMHB 260200Z 31011KT 9999 FEW025 BKN250 10/08 Q1017 RF00.0/000.0
YMHB 260130Z 32009KT 9999 FEW025 BKN250 09/07 Q1017 RF00.0/000.0
YMHB 260100Z 31006KT 9999 FEW025 BKN250 09/07 Q1018 RF00.0/000.0
YMHB 260030Z 30007KT 9999 FEW030 BKN280 09/07 Q1018 RF00.0/000.0
YMHB 252300Z 31007KT 9999 FEW020 SCT300 06/05 Q1019 RF00.0/000.2
YMHB 252230Z 30006KT 9999 FEW010 05/04 Q1019
YMHB 252200Z 29006KT 9999 FEW010 04/04 Q1019
YMHB 252130Z 28004KT 9999 FEW010 04/03 Q1019
YMHB 252100Z 31008KT 9999 FEW020 04/04 Q1019
YMHB 252030Z 30007KT CAVOK 05/04 Q1019
YMHB 252000Z 30006KT CAVOK 05/04 Q1019
YMHB 251930Z AUTO 31005KT 9999 // NCD 05/04 Q1019 RF00.0/000.2
YMHB 251900Z AUTO 30004KT 9999 // NCD 05/04 Q1019 RF00.0/000.2
YMHB 251830Z AUTO 31005KT 9999 // NCD 04/04 Q1019 RF00.0/000.2
YMHB 251800Z AUTO 31008KT 9999 // NCD 05/04 Q1019 RF00.0/000.2
YMHB 251730Z AUTO 32005KT 9999 // NCD 06/05 Q1020 RF00.0/000.2
YMHB 251700Z AUTO 31009KT 9999 // NCD 06/05 Q1020 RF00.0/000.2
YMHB 251630Z AUTO 32007KT 9999 // NCD 06/05 Q1020 RF00.0/000.2
YMHB 251600Z AUTO 32006KT 9999 // NCD 06/05 Q1020 RF00.0/000.2
YMHB 251530Z AUTO 31009KT 9999 // NCD 06/05 Q1021 RF00.0/000.2
YMHB 251500Z AUTO 29005KT 9999 // NCD 06/05 Q1021 RF00.0/000.2
YMHB 251430Z AUTO 31005KT 9999 // NCD 06/05 Q1021 RF00.0/000.2
YMHB 251400Z AUTO 30005KT 9999 // NCD 06/05 Q1021 RF00.0/000.2
YMHB 251330Z 30005KT 9999 FEW032 07/05 Q1022
YMHB 251300Z 29005KT 9999 FEW032 06/05 Q1022
YMHB 251230Z 30003KT 9999 FEW032 07/05 Q1022
YMHB 251200Z 32007KT 9999 FEW032 07/06 Q1022
YMHB 251130Z 31002KT 9999 FEW032 06/03 Q1022
YMHB 251030Z 33001KT 9999 FEW032 09/07 Q1023
YMHB 251000Z 29005KT 9999 FEW032 09/06 Q1023
YMHB 250930Z 01004KT 9999 FEW032 10/07 Q1023
YMHB 250900Z 02006KT 9999 FEW032 10/07 Q1023
YMHB 250830Z 01007KT 9999 FEW032 12/09 Q1023
YMHB 250800Z 03006KT 9999 FEW032 12/09 Q1023 SMOKE ALOFT
YMHB 250730Z 02006KT 9999 FEW032 12/07 Q1023 SMOKE ALOFT
YMHB 250700Z 02006KT 9999 FEW032 13/07 Q1023 SMOKE ALOFT
YMHB 250630Z 01006KT 9999 FEW032 14/07 Q1023 SMOKE TO N
YMHB 250600Z 36007KT 9999 FEW032 15/07 Q1023 SMOKE TO N
YMHB 250530Z 36008KT 9999 FEW032 16/07 Q1023
YMHB 250500Z 36009KT 9999 FEW032 16/08 Q1023
YMHB 250430Z 01007KT 9999 FEW030 16/08 Q1023
YMHB 250400Z 35008KT 9999 FEW030 16/07 Q1023
YMHB 250330Z 35009KT 9999 FEW030 16/06 Q1023
YMHB 250300Z 33007KT 9999 FEW028 16/08 Q1024
YMHB 250230Z 32007KT 9999 FEW028 14/07 Q1024
YMHB 250200Z 31009KT 9999 FEW025 13/07 Q1025
YMHB 250130Z 31008KT 9999 FEW030 12/07 Q1025
YMHB 250100Z 32008KT 9999 FEW030 11/07 Q1026
YMHB 250030Z 35005KT 9999 FEW030 09/05 Q1026
YMHB 250000Z 31009KT 9999 FEW025 08/05 Q1026
YMHB 242330Z 30008KT 9999 FEW035 07/04 Q1027
YMHB 242300Z 33007KT CAVOK 06/04 Q1027
YMHB 242230Z 33007KT CAVOK 05/03 Q1027
YMHB 242200Z 30006KT CAVOK 04/03 Q1027
YMHB 242130Z 31007KT CAVOK 03/02 Q1027
YMHB 242100Z 30006KT 9999 FEW030 03/02 Q1027
YMHB 242030Z 31008KT CAVOK 03/02 Q1027
YMHB 242000Z 31008KT CAVOK 04/03 Q1027
YMHB 241930Z AUTO 31007KT 9999 // NCD 04/03 Q1027 RF00.0/000.0
YMHB 241900Z AUTO 31008KT 9999 // NCD 04/03 Q1027 RF00.0/000.0
YMHB 241830Z AUTO 33006KT 9999 // NCD 04/03 Q1027 RF00.0/000.0
YMHB 241800Z AUTO 30005KT 250V330 9999 // NCD 04/03 Q1027 RF00.0/000.0
YMHB 241730Z AUTO 35007KT 9999 // NCD 04/03 Q1027 RF00.0/000.0
YMHB 241700Z AUTO 31008KT 9999 // NCD 04/03 Q1027 RF00.0/000.0
YMHB 241630Z AUTO 31010KT 9999 // NCD 04/03 Q1028 RF00.0/000.0
YMHB 241600Z AUTO 31008KT 9999 // NCD 05/03 Q1028 RF00.0/000.0
YMHB 241530Z AUTO 32008KT 9999 // NCD 05/03 Q1028 RF00.0/000.0
YMHB 241500Z AUTO 32006KT 9999 // NCD 04/03 Q1028 RF00.0/000.0
YMHB 241430Z AUTO 27004KT 9999 // NCD 04/03 Q1029 RF00.0/000.0
YMHB 241300Z 30005KT CAVOK 05/04 Q1029
YMHB 241230Z 31007KT CAVOK 04/03 Q1029
YMHB 241130Z 31008KT CAVOK 06/04 Q1029
YMHB 241100Z 31005KT CAVOK 06/05 Q1029
YMHB 241030Z 28004KT CAVOK 06/05 Q1029
YMHB 240930Z 00000KT 9999 FEW033 06/05 Q1029
YMHB 240900Z 35003KT 9999 FEW033 07/06 Q1029
YMHB 240830Z 33001KT 9999 FEW033 07/05 Q1029
YMHB 240800Z 32002KT 9999 FEW033 08/07 Q1028
YMHB 240730Z 15001KT 9999 FEW033 08/06 Q1028
YMHB 240700Z 00000KT 9999 FEW035 09/06 Q1028
YMHB 240630Z 14004KT 9999 FEW033 11/07 Q1028
YMHB 240530Z 14005KT 9999 FEW024 12/08 Q1028
YMHB 240430Z 15007KT 9999 FEW028 13/07 Q1028
YMHB 240400Z 30003KT 9999 FEW028 14/07 Q1029
YMHB 240330Z 33005KT 9999 FEW028 14/07 Q1029
YMHB 240300Z 31007KT 9999 FEW028 13/06 Q1029
YMHB 240230Z 30006KT 9999 FEW020 13/07 Q1030